sensor_id;sensor_type;location;lat;lon;timestamp;P1;durP1;ratioP1;P2;durP2;ratioP2
62543;SDS011;48597;49.030;1.822;2023-04-06T00:00:34;1.30;;;1.20;;
62543;SDS011;48597;49.030;1.822;2023-04-06T00:02:59;1.45;;;1.30;;
62543;SDS011;48597;49.030;1.822;2023-04-06T00:05:25;1.20;;;1.10;;
62543;SDS011;48597;49.030;1.822;2023-04-06T00:07:52;1.23;;;1.13;;
62543;SDS011;48597;49.030;1.822;2023-04-06T00:10:19;1.33;;;1.10;;
62543;SDS011;48597;49.030;1.822;2023-04-06T00:12:44;1.90;;;1.10;;
62543;SDS011;48597;49.030;1.822;2023-04-06T00:15:10;1.42;;;1.33;;
62543;SDS011;48597;49.030;1.822;2023-04-06T00:17:36;1.38;;;1.27;;
62543;SDS011;48597;49.030;1.822;2023-04-06T00:20:01;1.30;;;1.20;;
62543;SDS011;48597;49.030;1.822;2023-04-06T00:22:27;1.30;;;1.20;;
62543;SDS011;48597;49.030;1.822;2023-04-06T00:24:52;1.63;;;1.30;;
62543;SDS011;48597;49.030;1.822;2023-04-06T00:27:18;1.20;;;1.10;;
62543;SDS011;48597;49.030;1.822;2023-04-06T00:29:43;1.10;;;1.00;;
62543;SDS011;48597;49.030;1.822;2023-04-06T00:32:09;1.40;;;1.20;;
62543;SDS011;48597;49.030;1.822;2023-04-06T00:34:35;1.48;;;1.20;;
62543;SDS011;48597;49.030;1.822;2023-04-06T00:37:00;1.00;;;1.00;;
62543;SDS011;48597;49.030;1.822;2023-04-06T00:39:25;1.40;;;1.27;;
62543;SDS011;48597;49.030;1.822;2023-04-06T00:41:51;1.35;;;1.25;;
62543;SDS011;48597;49.030;1.822;2023-04-06T00:44:17;1.70;;;1.35;;
62543;SDS011;48597;49.030;1.822;2023-04-06T00:46:43;1.35;;;1.20;;
62543;SDS011;48597;49.030;1.822;2023-04-06T00:49:09;1.30;;;1.20;;
62543;SDS011;48597;49.030;1.822;2023-04-06T00:51:35;1.27;;;1.17;;
62543;SDS011;48597;49.030;1.822;2023-04-06T00:54:00;1.30;;;1.20;;
62543;SDS011;48597;49.030;1.822;2023-04-06T00:56:26;1.13;;;1.02;;
62543;SDS011;48597;49.030;1.822;2023-04-06T00:58:52;1.38;;;1.13;;
62543;SDS011;48597;49.030;1.822;2023-04-06T01:01:18;1.85;;;1.50;;
62543;SDS011;48597;49.030;1.822;2023-04-06T01:03:44;1.27;;;1.15;;
62543;SDS011;48597;49.030;1.822;2023-04-06T01:06:13;1.30;;;1.20;;
62543;SDS011;48597;49.030;1.822;2023-04-06T01:08:39;1.30;;;1.05;;
62543;SDS011;48597;49.030;1.822;2023-04-06T01:11:04;1.35;;;1.08;;
62543;SDS011;48597;49.030;1.822;2023-04-06T01:13:30;1.50;;;1.20;;
62543;SDS011;48597;49.030;1.822;2023-04-06T01:15:55;1.73;;;1.20;;
62543;SDS011;48597;49.030;1.822;2023-04-06T01:18:28;1.60;;;1.20;;
62543;SDS011;48597;49.030;1.822;2023-04-06T01:20:54;1.37;;;1.07;;
62543;SDS011;48597;49.030;1.822;2023-04-06T01:23:19;1.50;;;1.20;;
62543;SDS011;48597;49.030;1.822;2023-04-06T01:25:45;1.40;;;1.25;;
62543;SDS011;48597;49.030;1.822;2023-04-06T01:28:10;1.20;;;1.05;;
62543;SDS011;48597;49.030;1.822;2023-04-06T01:30:36;1.65;;;1.30;;
62543;SDS011;48597;49.030;1.822;2023-04-06T01:33:01;1.00;;;0.90;;
62543;SDS011;48597;49.030;1.822;2023-04-06T01:35:27;1.33;;;1.23;;
62543;SDS011;48597;49.030;1.822;2023-04-06T01:37:53;1.90;;;1.20;;
62543;SDS011;48597;49.030;1.822;2023-04-06T01:40:19;1.30;;;1.13;;
62543;SDS011;48597;49.030;1.822;2023-04-06T01:42:45;1.02;;;0.93;;
62543;SDS011;48597;49.030;1.822;2023-04-06T01:45:11;1.20;;;1.00;;
62543;SDS011;48597;49.030;1.822;2023-04-06T01:47:36;2.13;;;1.00;;
62543;SDS011;48597;49.030;1.822;2023-04-06T01:50:02;1.30;;;1.15;;
62543;SDS011;48597;49.030;1.822;2023-04-06T01:52:30;1.40;;;1.30;;
62543;SDS011;48597;49.030;1.822;2023-04-06T01:54:56;1.45;;;1.13;;
62543;SDS011;48597;49.030;1.822;2023-04-06T01:57:21;1.25;;;1.15;;
62543;SDS011;48597;49.030;1.822;2023-04-06T01:59:47;1.70;;;1.10;;
62543;SDS011;48597;49.030;1.822;2023-04-06T02:02:12;1.13;;;1.00;;
62543;SDS011;48597;49.030;1.822;2023-04-06T02:04:38;1.40;;;1.30;;
62543;SDS011;48597;49.030;1.822;2023-04-06T02:07:03;1.27;;;1.17;;
62543;SDS011;48597;49.030;1.822;2023-04-06T02:09:29;0.95;;;0.90;;
62543;SDS011;48597;49.030;1.822;2023-04-06T02:11:54;1.40;;;1.08;;
62543;SDS011;48597;49.030;1.822;2023-04-06T02:14:20;3.03;;;1.00;;
62543;SDS011;48597;49.030;1.822;2023-04-06T02:16:46;1.27;;;1.13;;
62543;SDS011;48597;49.030;1.822;2023-04-06T02:19:11;1.42;;;1.10;;
62543;SDS011;48597;49.030;1.822;2023-04-06T02:21:37;1.58;;;1.00;;
62543;SDS011;48597;49.030;1.822;2023-04-06T02:24:02;1.15;;;1.05;;
62543;SDS011;48597;49.030;1.822;2023-04-06T02:26:27;1.40;;;1.10;;
62543;SDS011;48597;49.030;1.822;2023-04-06T02:28:53;1.40;;;1.10;;
62543;SDS011;48597;49.030;1.822;2023-04-06T02:31:18;1.10;;;1.00;;
62543;SDS011;48597;49.030;1.822;2023-04-06T02:33:44;1.00;;;1.00;;
62543;SDS011;48597;49.030;1.822;2023-04-06T02:36:09;1.42;;;1.20;;
62543;SDS011;48597;49.030;1.822;2023-04-06T02:38:34;1.25;;;0.90;;
62543;SDS011;48597;49.030;1.822;2023-04-06T02:41:00;1.08;;;0.98;;
62543;SDS011;48597;49.030;1.822;2023-04-06T02:43:25;1.30;;;1.08;;
62543;SDS011;48597;49.030;1.822;2023-04-06T02:45:50;1.30;;;1.15;;
62543;SDS011;48597;49.030;1.822;2023-04-06T02:48:16;1.55;;;1.15;;
62543;SDS011;48597;49.030;1.822;2023-04-06T02:50:41;1.20;;;1.10;;
62543;SDS011;48597;49.030;1.822;2023-04-06T02:53:07;1.17;;;1.00;;
62543;SDS011;48597;49.030;1.822;2023-04-06T02:55:32;1.00;;;1.00;;
62543;SDS011;48597;49.030;1.822;2023-04-06T02:57:57;1.13;;;1.10;;
62543;SDS011;48597;49.030;1.822;2023-04-06T03:00:23;1.55;;;1.30;;
62543;SDS011;48597;49.030;1.822;2023-04-06T03:02:49;1.00;;;0.90;;
62543;SDS011;48597;49.030;1.822;2023-04-06T03:05:15;1.23;;;1.13;;
62543;SDS011;48597;49.030;1.822;2023-04-06T03:07:40;1.05;;;0.90;;
62543;SDS011;48597;49.030;1.822;2023-04-06T03:10:06;1.08;;;0.98;;
62543;SDS011;48597;49.030;1.822;2023-04-06T03:12:32;1.20;;;1.10;;
62543;SDS011;48597;49.030;1.822;2023-04-06T03:14:57;1.05;;;0.95;;
62543;SDS011;48597;49.030;1.822;2023-04-06T03:17:22;1.10;;;1.00;;
62543;SDS011;48597;49.030;1.822;2023-04-06T03:19:48;1.10;;;1.00;;
62543;SDS011;48597;49.030;1.822;2023-04-06T03:22:13;1.20;;;1.10;;
62543;SDS011;48597;49.030;1.822;2023-04-06T03:24:39;1.35;;;1.00;;
62543;SDS011;48597;49.030;1.822;2023-04-06T03:27:04;0.88;;;0.88;;
62543;SDS011;48597;49.030;1.822;2023-04-06T03:29:31;1.20;;;1.10;;
62543;SDS011;48597;49.030;1.822;2023-04-06T03:31:56;1.20;;;1.10;;
62543;SDS011;48597;49.030;1.822;2023-04-06T03:34:22;1.20;;;1.08;;
62543;SDS011;48597;49.030;1.822;2023-04-06T03:36:47;1.25;;;1.02;;
62543;SDS011;48597;49.030;1.822;2023-04-06T03:39:12;1.48;;;1.10;;
62543;SDS011;48597;49.030;1.822;2023-04-06T03:41:38;1.23;;;1.10;;
62543;SDS011;48597;49.030;1.822;2023-04-06T03:44:04;1.10;;;1.00;;
62543;SDS011;48597;49.030;1.822;2023-04-06T03:46:30;1.20;;;1.10;;
62543;SDS011;48597;49.030;1.822;2023-04-06T03:48:56;1.17;;;1.00;;
62543;SDS011;48597;49.030;1.822;2023-04-06T03:51:21;1.10;;;1.05;;
62543;SDS011;48597;49.030;1.822;2023-04-06T03:53:47;1.20;;;1.00;;
62543;SDS011;48597;49.030;1.822;2023-04-06T03:56:16;1.20;;;1.10;;
62543;SDS011;48597;49.030;1.822;2023-04-06T03:58:41;1.48;;;0.90;;
62543;SDS011;48597;49.030;1.822;2023-04-06T04:01:09;1.10;;;0.98;;
62543;SDS011;48597;49.030;1.822;2023-04-06T04:03:34;1.10;;;1.00;;
62543;SDS011;48597;49.030;1.822;2023-04-06T04:06:00;1.20;;;1.10;;
62543;SDS011;48597;49.030;1.822;2023-04-06T04:08:25;2.00;;;1.15;;
62543;SDS011;48597;49.030;1.822;2023-04-06T04:10:51;1.58;;;1.30;;
62543;SDS011;48597;49.030;1.822;2023-04-06T04:13:16;1.40;;;1.30;;
62543;SDS011;48597;49.030;1.822;2023-04-06T04:15:42;1.15;;;0.80;;
62543;SDS011;48597;49.030;1.822;2023-04-06T04:18:07;0.88;;;0.88;;
62543;SDS011;48597;49.030;1.822;2023-04-06T04:20:32;2.20;;;1.20;;
62543;SDS011;48597;49.030;1.822;2023-04-06T04:22:59;1.73;;;1.02;;
62543;SDS011;48597;49.030;1.822;2023-04-06T04:25:24;0.98;;;0.95;;
62543;SDS011;48597;49.030;1.822;2023-04-06T04:27:50;1.17;;;1.08;;
62543;SDS011;48597;49.030;1.822;2023-04-06T04:30:15;1.10;;;1.00;;
62543;SDS011;48597;49.030;1.822;2023-04-06T04:32:41;1.55;;;1.30;;
62543;SDS011;48597;49.030;1.822;2023-04-06T04:35:06;1.40;;;1.30;;
62543;SDS011;48597;49.030;1.822;2023-04-06T04:37:32;1.17;;;1.08;;
62543;SDS011;48597;49.030;1.822;2023-04-06T04:39:59;1.25;;;1.15;;
62543;SDS011;48597;49.030;1.822;2023-04-06T04:42:25;1.27;;;1.15;;
62543;SDS011;48597;49.030;1.822;2023-04-06T04:44:51;1.33;;;1.10;;
62543;SDS011;48597;49.030;1.822;2023-04-06T04:47:19;1.67;;;1.00;;
62543;SDS011;48597;49.030;1.822;2023-04-06T04:49:45;1.02;;;1.00;;
62543;SDS011;48597;49.030;1.822;2023-04-06T04:52:10;1.67;;;1.17;;
62543;SDS011;48597;49.030;1.822;2023-04-06T04:54:35;1.27;;;1.17;;
62543;SDS011;48597;49.030;1.822;2023-04-06T04:57:01;1.10;;;1.00;;
62543;SDS011;48597;49.030;1.822;2023-04-06T04:59:26;1.00;;;1.00;;
62543;SDS011;48597;49.030;1.822;2023-04-06T05:01:51;1.30;;;1.10;;
62543;SDS011;48597;49.030;1.822;2023-04-06T05:04:17;2.35;;;1.20;;
62543;SDS011;48597;49.030;1.822;2023-04-06T05:06:42;1.48;;;1.25;;
62543;SDS011;48597;49.030;1.822;2023-04-06T05:09:08;1.40;;;1.30;;
62543;SDS011;48597;49.030;1.822;2023-04-06T05:11:33;1.33;;;1.23;;
62543;SDS011;48597;49.030;1.822;2023-04-06T05:13:58;1.25;;;1.15;;
62543;SDS011;48597;49.030;1.822;2023-04-06T05:16:24;1.65;;;1.38;;
62543;SDS011;48597;49.030;1.822;2023-04-06T05:18:50;1.38;;;1.27;;
62543;SDS011;48597;49.030;1.822;2023-04-06T05:21:16;1.80;;;1.20;;
62543;SDS011;48597;49.030;1.822;2023-04-06T05:23:41;1.30;;;1.20;;
62543;SDS011;48597;49.030;1.822;2023-04-06T05:26:06;1.83;;;1.08;;
62543;SDS011;48597;49.030;1.822;2023-04-06T05:28:32;3.83;;;1.25;;
62543;SDS011;48597;49.030;1.822;2023-04-06T05:30:57;1.58;;;1.20;;
62543;SDS011;48597;49.030;1.822;2023-04-06T05:33:23;1.20;;;1.10;;
62543;SDS011;48597;49.030;1.822;2023-04-06T05:35:50;1.33;;;1.23;;
62543;SDS011;48597;49.030;1.822;2023-04-06T05:38:15;1.38;;;1.27;;
62543;SDS011;48597;49.030;1.822;2023-04-06T05:40:40;1.92;;;1.17;;
62543;SDS011;48597;49.030;1.822;2023-04-06T05:43:06;1.40;;;1.30;;
62543;SDS011;48597;49.030;1.822;2023-04-06T05:45:33;1.73;;;1.30;;
62543;SDS011;48597;49.030;1.822;2023-04-06T05:47:58;1.30;;;1.20;;
62543;SDS011;48597;49.030;1.822;2023-04-06T05:50:23;2.25;;;1.48;;
62543;SDS011;48597;49.030;1.822;2023-04-06T05:52:49;1.50;;;1.40;;
62543;SDS011;48597;49.030;1.822;2023-04-06T05:55:15;1.58;;;1.48;;
62543;SDS011;48597;49.030;1.822;2023-04-06T05:57:40;2.25;;;1.40;;
62543;SDS011;48597;49.030;1.822;2023-04-06T06:00:06;1.33;;;1.23;;
62543;SDS011;48597;49.030;1.822;2023-04-06T06:02:34;1.52;;;1.42;;
62543;SDS011;48597;49.030;1.822;2023-04-06T06:05:00;1.90;;;1.42;;
62543;SDS011;48597;49.030;1.822;2023-04-06T06:07:25;1.30;;;1.20;;
62543;SDS011;48597;49.030;1.822;2023-04-06T06:09:51;1.50;;;1.40;;
62543;SDS011;48597;49.030;1.822;2023-04-06T06:12:16;1.63;;;1.10;;
62543;SDS011;48597;49.030;1.822;2023-04-06T06:14:41;1.60;;;1.50;;
62543;SDS011;48597;49.030;1.822;2023-04-06T06:17:07;1.67;;;1.25;;
62543;SDS011;48597;49.030;1.822;2023-04-06T06:19:33;1.55;;;1.33;;
62543;SDS011;48597;49.030;1.822;2023-04-06T06:21:59;1.30;;;1.20;;
62543;SDS011;48597;49.030;1.822;2023-04-06T06:24:27;1.40;;;1.30;;
62543;SDS011;48597;49.030;1.822;2023-04-06T06:26:53;1.70;;;1.35;;
62543;SDS011;48597;49.030;1.822;2023-04-06T06:29:18;1.55;;;1.45;;
62543;SDS011;48597;49.030;1.822;2023-04-06T06:31:44;1.50;;;1.40;;
62543;SDS011;48597;49.030;1.822;2023-04-06T06:34:09;1.50;;;1.40;;
62543;SDS011;48597;49.030;1.822;2023-04-06T06:36:35;1.58;;;1.48;;
62543;SDS011;48597;49.030;1.822;2023-04-06T06:39:01;1.95;;;1.60;;
62543;SDS011;48597;49.030;1.822;2023-04-06T06:41:28;1.60;;;1.50;;
62543;SDS011;48597;49.030;1.822;2023-04-06T06:43:54;2.22;;;1.40;;
62543;SDS011;48597;49.030;1.822;2023-04-06T06:46:20;1.88;;;1.35;;
62543;SDS011;48597;49.030;1.822;2023-04-06T06:48:45;2.30;;;1.65;;
62543;SDS011;48597;49.030;1.822;2023-04-06T06:51:11;1.52;;;1.42;;
62543;SDS011;48597;49.030;1.822;2023-04-06T06:53:37;2.28;;;1.83;;
62543;SDS011;48597;49.030;1.822;2023-04-06T06:56:02;2.00;;;1.80;;
62543;SDS011;48597;49.030;1.822;2023-04-06T06:58:28;2.25;;;1.70;;
62543;SDS011;48597;49.030;1.822;2023-04-06T07:00:57;2.25;;;1.50;;
62543;SDS011;48597;49.030;1.822;2023-04-06T07:03:23;1.40;;;1.30;;
62543;SDS011;48597;49.030;1.822;2023-04-06T07:05:49;1.55;;;1.40;;
62543;SDS011;48597;49.030;1.822;2023-04-06T07:08:18;1.60;;;1.50;;
62543;SDS011;48597;49.030;1.822;2023-04-06T07:10:44;1.60;;;1.50;;
62543;SDS011;48597;49.030;1.822;2023-04-06T07:13:09;1.70;;;1.40;;
62543;SDS011;48597;49.030;1.822;2023-04-06T07:15:35;2.17;;;1.80;;
62543;SDS011;48597;49.030;1.822;2023-04-06T07:18:00;1.95;;;1.65;;
62543;SDS011;48597;49.030;1.822;2023-04-06T07:20:26;1.75;;;1.60;;
62543;SDS011;48597;49.030;1.822;2023-04-06T07:22:53;2.15;;;1.50;;
62543;SDS011;48597;49.030;1.822;2023-04-06T07:25:18;1.60;;;1.50;;
62543;SDS011;48597;49.030;1.822;2023-04-06T07:27:44;1.77;;;1.60;;
62543;SDS011;48597;49.030;1.822;2023-04-06T07:30:09;1.60;;;1.50;;
62543;SDS011;48597;49.030;1.822;2023-04-06T07:32:35;1.60;;;1.50;;
62543;SDS011;48597;49.030;1.822;2023-04-06T07:35:01;4.93;;;1.63;;
62543;SDS011;48597;49.030;1.822;2023-04-06T07:37:26;2.78;;;1.65;;
62543;SDS011;48597;49.030;1.822;2023-04-06T07:39:52;1.73;;;1.60;;
62543;SDS011;48597;49.030;1.822;2023-04-06T07:42:17;1.67;;;1.50;;
62543;SDS011;48597;49.030;1.822;2023-04-06T07:44:43;1.85;;;1.50;;
62543;SDS011;48597;49.030;1.822;2023-04-06T07:47:08;2.17;;;1.50;;
62543;SDS011;48597;49.030;1.822;2023-04-06T07:49:33;2.63;;;1.63;;
62543;SDS011;48597;49.030;1.822;2023-04-06T07:51:59;3.20;;;1.70;;
62543;SDS011;48597;49.030;1.822;2023-04-06T07:54:25;2.08;;;1.60;;
62543;SDS011;48597;49.030;1.822;2023-04-06T07:56:51;1.60;;;1.50;;
62543;SDS011;48597;49.030;1.822;2023-04-06T07:59:16;1.77;;;1.67;;
62543;SDS011;48597;49.030;1.822;2023-04-06T08:01:41;3.22;;;1.90;;
62543;SDS011;48597;49.030;1.822;2023-04-06T08:04:07;1.90;;;1.70;;
62543;SDS011;48597;49.030;1.822;2023-04-06T08:06:32;2.47;;;1.55;;
62543;SDS011;48597;49.030;1.822;2023-04-06T08:08:59;1.67;;;1.52;;
62543;SDS011;48597;49.030;1.822;2023-04-06T08:11:24;1.73;;;1.60;;
62543;SDS011;48597;49.030;1.822;2023-04-06T08:13:51;1.60;;;1.50;;
62543;SDS011;48597;49.030;1.822;2023-04-06T08:16:17;2.33;;;1.70;;
62543;SDS011;48597;49.030;1.822;2023-04-06T08:18:43;1.60;;;1.42;;
62543;SDS011;48597;49.030;1.822;2023-04-06T08:21:08;2.08;;;1.63;;
62543;SDS011;48597;49.030;1.822;2023-04-06T08:23:34;1.90;;;1.48;;
62543;SDS011;48597;49.030;1.822;2023-04-06T08:25:59;1.73;;;1.63;;
62543;SDS011;48597;49.030;1.822;2023-04-06T08:28:25;2.45;;;1.70;;
62543;SDS011;48597;49.030;1.822;2023-04-06T08:30:51;2.13;;;1.77;;
62543;SDS011;48597;49.030;1.822;2023-04-06T08:33:16;2.55;;;1.85;;
62543;SDS011;48597;49.030;1.822;2023-04-06T08:35:42;1.90;;;1.40;;
62543;SDS011;48597;49.030;1.822;2023-04-06T08:38:07;1.60;;;1.50;;
62543;SDS011;48597;49.030;1.822;2023-04-06T08:40:39;2.35;;;1.63;;
62543;SDS011;48597;49.030;1.822;2023-04-06T08:43:08;1.60;;;1.50;;
62543;SDS011;48597;49.030;1.822;2023-04-06T08:45:38;2.03;;;1.50;;
62543;SDS011;48597;49.030;1.822;2023-04-06T08:48:04;1.83;;;1.60;;
62543;SDS011;48597;49.030;1.822;2023-04-06T08:50:32;2.97;;;1.60;;
62543;SDS011;48597;49.030;1.822;2023-04-06T08:52:58;1.50;;;1.40;;
62543;SDS011;48597;49.030;1.822;2023-04-06T08:55:25;1.63;;;1.50;;
62543;SDS011;48597;49.030;1.822;2023-04-06T08:57:50;1.70;;;1.60;;
62543;SDS011;48597;49.030;1.822;2023-04-06T09:00:19;1.63;;;1.52;;
62543;SDS011;48597;49.030;1.822;2023-04-06T09:02:45;1.70;;;1.60;;
62543;SDS011;48597;49.030;1.822;2023-04-06T09:05:14;1.83;;;1.40;;
62543;SDS011;48597;49.030;1.822;2023-04-06T09:07:40;1.90;;;1.70;;
62543;SDS011;48597;49.030;1.822;2023-04-06T09:10:06;1.63;;;1.52;;
62543;SDS011;48597;49.030;1.822;2023-04-06T09:12:32;1.50;;;1.40;;
62543;SDS011;48597;49.030;1.822;2023-04-06T09:14:58;1.75;;;1.60;;
62543;SDS011;48597;49.030;1.822;2023-04-06T09:17:26;1.40;;;1.30;;
62543;SDS011;48597;49.030;1.822;2023-04-06T09:19:57;2.08;;;1.65;;
62543;SDS011;48597;49.030;1.822;2023-04-06T09:22:23;1.60;;;1.50;;
62543;SDS011;48597;49.030;1.822;2023-04-06T09:24:51;1.85;;;1.40;;
62543;SDS011;48597;49.030;1.822;2023-04-06T09:27:19;1.85;;;1.67;;
62543;SDS011;48597;49.030;1.822;2023-04-06T09:30:08;1.60;;;1.50;;
62543;SDS011;48597;49.030;1.822;2023-04-06T09:32:52;2.28;;;1.52;;
62543;SDS011;48597;49.030;1.822;2023-04-06T09:35:19;1.70;;;1.60;;
62543;SDS011;48597;49.030;1.822;2023-04-06T09:37:46;1.60;;;1.50;;
62543;SDS011;48597;49.030;1.822;2023-04-06T09:40:12;1.80;;;1.50;;
62543;SDS011;48597;49.030;1.822;2023-04-06T09:42:40;1.42;;;1.33;;
62543;SDS011;48597;49.030;1.822;2023-04-06T09:45:06;1.58;;;1.48;;
62543;SDS011;48597;49.030;1.822;2023-04-06T09:47:33;1.80;;;1.52;;
62543;SDS011;48597;49.030;1.822;2023-04-06T09:50:01;1.48;;;1.25;;
62543;SDS011;48597;49.030;1.822;2023-04-06T09:52:31;1.50;;;1.40;;
62543;SDS011;48597;49.030;1.822;2023-04-06T09:55:02;1.70;;;1.60;;
62543;SDS011;48597;49.030;1.822;2023-04-06T09:57:31;1.40;;;1.30;;
62543;SDS011;48597;49.030;1.822;2023-04-06T10:02:48;1.30;;;1.20;;
62543;SDS011;48597;49.030;1.822;2023-04-06T10:05:17;1.50;;;1.40;;
62543;SDS011;48597;49.030;1.822;2023-04-06T10:07:47;1.33;;;1.23;;
62543;SDS011;48597;49.030;1.822;2023-04-06T10:10:15;1.45;;;1.35;;
62543;SDS011;48597;49.030;1.822;2023-04-06T10:12:41;1.90;;;1.60;;
62543;SDS011;48597;49.030;1.822;2023-04-06T10:15:07;1.40;;;1.30;;
62543;SDS011;48597;49.030;1.822;2023-04-06T10:17:33;1.63;;;1.27;;
62543;SDS011;48597;49.030;1.822;2023-04-06T10:22:47;1.40;;;1.30;;
62543;SDS011;48597;49.030;1.822;2023-04-06T10:25:29;1.40;;;1.17;;
62543;SDS011;48597;49.030;1.822;2023-04-06T10:28:13;2.05;;;1.30;;
62543;SDS011;48597;49.030;1.822;2023-04-06T10:30:42;1.63;;;1.27;;
62543;SDS011;48597;49.030;1.822;2023-04-06T10:35:40;1.50;;;1.40;;
62543;SDS011;48597;49.030;1.822;2023-04-06T10:38:06;1.58;;;1.35;;
62543;SDS011;48597;49.030;1.822;2023-04-06T10:40:35;1.85;;;1.40;;
62543;SDS011;48597;49.030;1.822;2023-04-06T10:43:21;1.50;;;1.23;;
62543;SDS011;48597;49.030;1.822;2023-04-06T10:45:57;1.30;;;1.20;;
62543;SDS011;48597;49.030;1.822;2023-04-06T10:48:24;1.45;;;1.35;;
62543;SDS011;48597;49.030;1.822;2023-04-06T10:51:00;1.73;;;1.40;;
62543;SDS011;48597;49.030;1.822;2023-04-06T10:53:26;1.33;;;1.20;;
62543;SDS011;48597;49.030;1.822;2023-04-06T10:55:56;1.95;;;1.38;;
62543;SDS011;48597;49.030;1.822;2023-04-06T10:58:28;1.55;;;1.45;;
62543;SDS011;48597;49.030;1.822;2023-04-06T11:00:54;1.40;;;1.27;;
62543;SDS011;48597;49.030;1.822;2023-04-06T11:03:25;1.33;;;1.23;;
62543;SDS011;48597;49.030;1.822;2023-04-06T11:05:50;1.05;;;1.02;;
62543;SDS011;48597;49.030;1.822;2023-04-06T11:08:29;1.20;;;1.10;;
62543;SDS011;48597;49.030;1.822;2023-04-06T11:16:19;1.20;;;1.10;;
62543;SDS011;48597;49.030;1.822;2023-04-06T11:18:55;1.40;;;1.10;;
62543;SDS011;48597;49.030;1.822;2023-04-06T11:21:35;1.40;;;1.30;;
62543;SDS011;48597;49.030;1.822;2023-04-06T11:26:41;1.10;;;1.10;;
62543;SDS011;48597;49.030;1.822;2023-04-06T11:29:13;1.30;;;1.20;;
62543;SDS011;48597;49.030;1.822;2023-04-06T11:31:41;1.40;;;1.15;;
62543;SDS011;48597;49.030;1.822;2023-04-06T11:34:12;1.03;;;1.00;;
62543;SDS011;48597;49.030;1.822;2023-04-06T11:36:48;1.00;;;1.00;;
62543;SDS011;48597;49.030;1.822;2023-04-06T11:39:18;1.20;;;1.10;;
62543;SDS011;48597;49.030;1.822;2023-04-06T11:41:48;1.10;;;1.00;;
62543;SDS011;48597;49.030;1.822;2023-04-06T11:44:26;1.00;;;1.00;;
62543;SDS011;48597;49.030;1.822;2023-04-06T11:47:14;1.20;;;1.10;;
62543;SDS011;48597;49.030;1.822;2023-04-06T11:49:41;1.95;;;1.10;;
62543;SDS011;48597;49.030;1.822;2023-04-06T11:52:14;1.10;;;1.00;;
62543;SDS011;48597;49.030;1.822;2023-04-06T11:54:48;0.90;;;0.90;;
62543;SDS011;48597;49.030;1.822;2023-04-06T11:57:15;1.10;;;1.00;;
62543;SDS011;48597;49.030;1.822;2023-04-06T11:59:44;1.10;;;0.98;;
62543;SDS011;48597;49.030;1.822;2023-04-06T12:02:10;1.10;;;1.00;;
62543;SDS011;48597;49.030;1.822;2023-04-06T12:04:36;1.10;;;1.00;;
62543;SDS011;48597;49.030;1.822;2023-04-06T12:07:02;1.20;;;1.10;;
62543;SDS011;48597;49.030;1.822;2023-04-06T12:09:28;0.90;;;0.90;;
62543;SDS011;48597;49.030;1.822;2023-04-06T12:11:54;0.95;;;0.90;;
62543;SDS011;48597;49.030;1.822;2023-04-06T12:14:21;1.02;;;0.93;;
62543;SDS011;48597;49.030;1.822;2023-04-06T12:16:47;0.90;;;0.90;;
62543;SDS011;48597;49.030;1.822;2023-04-06T12:19:12;0.90;;;0.90;;
62543;SDS011;48597;49.030;1.822;2023-04-06T12:21:38;0.80;;;0.80;;
62543;SDS011;48597;49.030;1.822;2023-04-06T12:24:03;1.00;;;1.00;;
62543;SDS011;48597;49.030;1.822;2023-04-06T12:26:29;1.30;;;0.90;;
62543;SDS011;48597;49.030;1.822;2023-04-06T12:28:56;1.17;;;1.00;;
62543;SDS011;48597;49.030;1.822;2023-04-06T12:31:22;0.70;;;0.70;;
62543;SDS011;48597;49.030;1.822;2023-04-06T12:33:48;1.00;;;1.00;;
62543;SDS011;48597;49.030;1.822;2023-04-06T12:36:15;0.88;;;0.88;;
62543;SDS011;48597;49.030;1.822;2023-04-06T12:38:44;1.10;;;0.90;;
62543;SDS011;48597;49.030;1.822;2023-04-06T12:41:10;1.05;;;0.80;;
62543;SDS011;48597;49.030;1.822;2023-04-06T12:43:37;1.13;;;0.80;;
62543;SDS011;48597;49.030;1.822;2023-04-06T12:46:02;0.80;;;0.80;;
62543;SDS011;48597;49.030;1.822;2023-04-06T12:48:28;1.20;;;1.00;;
62543;SDS011;48597;49.030;1.822;2023-04-06T12:50:55;1.10;;;1.00;;
62543;SDS011;48597;49.030;1.822;2023-04-06T12:53:22;0.80;;;0.80;;
62543;SDS011;48597;49.030;1.822;2023-04-06T12:55:48;1.00;;;0.90;;
62543;SDS011;48597;49.030;1.822;2023-04-06T12:58:13;0.95;;;0.90;;
62543;SDS011;48597;49.030;1.822;2023-04-06T13:00:38;0.95;;;0.90;;
62543;SDS011;48597;49.030;1.822;2023-04-06T13:03:04;1.05;;;0.88;;
62543;SDS011;48597;49.030;1.822;2023-04-06T13:05:29;1.17;;;0.90;;
62543;SDS011;48597;49.030;1.822;2023-04-06T13:07:55;1.23;;;0.90;;
62543;SDS011;48597;49.030;1.822;2023-04-06T13:10:22;0.80;;;0.80;;
62543;SDS011;48597;49.030;1.822;2023-04-06T13:12:47;0.65;;;0.65;;
62543;SDS011;48597;49.030;1.822;2023-04-06T13:15:13;0.80;;;0.80;;
62543;SDS011;48597;49.030;1.822;2023-04-06T13:17:38;1.00;;;0.80;;
62543;SDS011;48597;49.030;1.822;2023-04-06T13:20:04;1.00;;;0.90;;
62543;SDS011;48597;49.030;1.822;2023-04-06T13:22:31;1.92;;;0.88;;
62543;SDS011;48597;49.030;1.822;2023-04-06T13:24:56;0.80;;;0.80;;
62543;SDS011;48597;49.030;1.822;2023-04-06T13:27:22;0.70;;;0.70;;
62543;SDS011;48597;49.030;1.822;2023-04-06T13:29:47;0.75;;;0.70;;
62543;SDS011;48597;49.030;1.822;2023-04-06T13:32:12;0.98;;;0.88;;
62543;SDS011;48597;49.030;1.822;2023-04-06T13:34:38;1.25;;;0.88;;
62543;SDS011;48597;49.030;1.822;2023-04-06T13:37:04;0.90;;;0.80;;
62543;SDS011;48597;49.030;1.822;2023-04-06T13:39:29;0.73;;;0.73;;
62543;SDS011;48597;49.030;1.822;2023-04-06T13:41:55;0.80;;;0.80;;
62543;SDS011;48597;49.030;1.822;2023-04-06T13:44:22;0.98;;;0.90;;
62543;SDS011;48597;49.030;1.822;2023-04-06T13:46:48;1.15;;;0.80;;
62543;SDS011;48597;49.030;1.822;2023-04-06T13:49:13;0.80;;;0.80;;
62543;SDS011;48597;49.030;1.822;2023-04-06T13:51:40;1.67;;;0.90;;
62543;SDS011;48597;49.030;1.822;2023-04-06T13:54:06;0.70;;;0.70;;
62543;SDS011;48597;49.030;1.822;2023-04-06T13:56:31;0.60;;;0.60;;
62543;SDS011;48597;49.030;1.822;2023-04-06T13:58:57;0.70;;;0.70;;
62543;SDS011;48597;49.030;1.822;2023-04-06T14:01:22;0.70;;;0.70;;
62543;SDS011;48597;49.030;1.822;2023-04-06T14:03:50;0.68;;;0.68;;
62543;SDS011;48597;49.030;1.822;2023-04-06T14:06:16;0.95;;;0.70;;
62543;SDS011;48597;49.030;1.822;2023-04-06T14:08:41;1.13;;;0.85;;
62543;SDS011;48597;49.030;1.822;2023-04-06T14:11:10;0.70;;;0.70;;
62543;SDS011;48597;49.030;1.822;2023-04-06T14:13:37;0.55;;;0.55;;
62543;SDS011;48597;49.030;1.822;2023-04-06T14:16:02;0.95;;;0.85;;
62543;SDS011;48597;49.030;1.822;2023-04-06T14:18:28;0.70;;;0.70;;
62543;SDS011;48597;49.030;1.822;2023-04-06T14:20:56;1.10;;;0.90;;
62543;SDS011;48597;49.030;1.822;2023-04-06T14:23:22;0.77;;;0.77;;
62543;SDS011;48597;49.030;1.822;2023-04-06T14:25:50;0.98;;;0.60;;
62543;SDS011;48597;49.030;1.822;2023-04-06T14:28:16;0.77;;;0.60;;
62543;SDS011;48597;49.030;1.822;2023-04-06T14:30:41;0.80;;;0.70;;
62543;SDS011;48597;49.030;1.822;2023-04-06T14:33:07;0.73;;;0.65;;
62543;SDS011;48597;49.030;1.822;2023-04-06T14:35:32;0.82;;;0.70;;
62543;SDS011;48597;49.030;1.822;2023-04-06T14:37:58;0.70;;;0.70;;
62543;SDS011;48597;49.030;1.822;2023-04-06T14:40:24;0.85;;;0.68;;
62543;SDS011;48597;49.030;1.822;2023-04-06T14:42:50;1.27;;;0.82;;
62543;SDS011;48597;49.030;1.822;2023-04-06T14:45:19;0.73;;;0.73;;
62543;SDS011;48597;49.030;1.822;2023-04-06T14:47:47;0.60;;;0.60;;
62543;SDS011;48597;49.030;1.822;2023-04-06T14:50:13;3.22;;;1.00;;
62543;SDS011;48597;49.030;1.822;2023-04-06T14:52:38;0.65;;;0.65;;
62543;SDS011;48597;49.030;1.822;2023-04-06T14:55:04;0.85;;;0.70;;
62543;SDS011;48597;49.030;1.822;2023-04-06T14:57:29;2.30;;;0.70;;
62543;SDS011;48597;49.030;1.822;2023-04-06T14:59:55;0.70;;;0.70;;